createdAt,value
2023-01-12T00:00:32.639Z,6.97
2023-01-12T00:04:35.627Z,9.00
2023-01-12T00:08:38.506Z,8.07
2023-01-12T00:12:42.779Z,9.00
2023-01-12T00:16:45.527Z,8.20
2023-01-12T00:20:48.751Z,8.10
2023-01-12T00:24:52.531Z,6.83
2023-01-12T00:28:56.622Z,10.60
2023-01-12T00:32:59.323Z,6.73
2023-01-12T00:37:02.405Z,6.53
2023-01-12T00:41:08.734Z,6.60
2023-01-12T00:45:24.315Z,7.90
2023-01-12T00:49:27.067Z,5.87
2023-01-12T00:53:29.767Z,5.80
2023-01-12T00:57:32.512Z,5.43
2023-01-12T01:01:37.025Z,7.47
2023-01-12T01:05:40.067Z,7.43
2023-01-12T01:09:43.203Z,7.73
2023-01-12T01:13:46.615Z,6.53
2023-01-12T01:17:51.195Z,7.03
2023-01-12T01:21:53.875Z,9.03
2023-01-12T01:25:56.695Z,4.60
2023-01-12T01:29:59.386Z,9.13
2023-01-12T01:34:03.574Z,6.63
2023-01-12T01:38:06.872Z,7.30
2023-01-12T01:42:27.692Z,8.73
2023-01-12T01:46:40.713Z,9.13
2023-01-12T01:50:49.576Z,7.57
2023-01-12T01:54:55.794Z,10.80
2023-01-12T01:59:00.943Z,7.13
2023-01-12T02:03:04.608Z,6.90
2023-01-12T02:07:08.797Z,7.13
2023-01-12T02:11:32.501Z,7.13
2023-01-12T02:15:59.153Z,7.23
2023-01-12T02:20:28.710Z,7.80
2023-01-12T02:24:58.072Z,6.87
2023-01-12T02:29:49.177Z,6.40
2023-01-12T02:34:01.979Z,5.80
2023-01-12T02:38:10.477Z,5.53
2023-01-12T02:42:36.450Z,7.27
2023-01-12T02:46:40.679Z,6.27
2023-01-12T02:50:49.091Z,7.20
2023-01-12T02:54:52.674Z,6.70
2023-01-12T02:58:57.974Z,6.40
2023-01-12T03:03:00.627Z,7.10
2023-01-12T03:07:40.101Z,4.47
2023-01-12T03:11:44.310Z,3.50
2023-01-12T03:15:49.756Z,5.70
2023-01-12T03:19:54.047Z,6.00
2023-01-12T03:24:02.035Z,6.17
2023-01-12T03:28:06.262Z,5.37
2023-01-12T03:32:09.046Z,5.60
2023-01-12T03:36:26.922Z,6.10
2023-01-12T03:40:36.709Z,4.73
2023-01-12T03:44:42.449Z,7.80
2023-01-12T03:48:48.586Z,4.53
2023-01-12T03:52:51.791Z,5.67
2023-01-12T03:57:04.827Z,6.67
2023-01-12T04:01:07.959Z,7.10
2023-01-12T04:05:11.434Z,5.40
2023-01-12T04:09:14.055Z,4.33
2023-01-12T04:13:18.027Z,6.17
2023-01-12T04:17:24.990Z,4.63
2023-01-12T04:21:45.016Z,4.43
2023-01-12T04:25:47.699Z,5.93
2023-01-12T04:29:52.217Z,5.53
2023-01-12T04:33:55.175Z,4.27
2023-01-12T04:37:57.862Z,4.03
2023-01-12T04:42:00.812Z,4.70
2023-01-12T04:46:08.106Z,3.80
2023-01-12T04:50:11.572Z,5.23
2023-01-12T04:54:14.461Z,5.83
2023-01-12T04:58:17.403Z,4.27
2023-01-12T05:02:21.466Z,5.87
2023-01-12T05:06:24.825Z,5.73
2023-01-12T05:10:26.541Z,5.93
2023-01-12T05:14:29.261Z,4.23
2023-01-12T05:18:33.251Z,4.07
2023-01-12T05:22:36.042Z,3.10
2023-01-12T05:26:38.770Z,5.53
2023-01-12T05:30:41.747Z,5.23
2023-01-12T05:34:46.040Z,6.83
2023-01-12T05:38:48.736Z,6.03
2023-01-12T05:43:09.374Z,3.60
2023-01-12T05:47:12.372Z,4.13
2023-01-12T05:51:16.656Z,4.90
2023-01-12T05:55:19.740Z,5.73
2023-01-12T05:59:22.587Z,5.53
2023-01-12T06:03:27.713Z,3.73
2023-01-12T06:07:32.212Z,5.27
2023-01-12T06:11:52.572Z,4.80
2023-01-12T06:15:55.321Z,5.77
2023-01-12T06:19:58.030Z,6.80
2023-01-12T06:24:02.121Z,5.23
2023-01-12T06:28:06.640Z,6.43
2023-01-12T06:32:09.568Z,6.90
2023-01-12T06:36:12.697Z,7.77
2023-01-12T06:40:16.871Z,5.47
2023-01-12T06:44:19.586Z,5.67
2023-01-12T06:48:25.746Z,5.23
2023-01-12T06:52:30.118Z,6.43
2023-01-12T06:56:34.185Z,5.87
2023-01-12T07:00:37.003Z,5.20
2023-01-12T07:04:39.795Z,9.10
2023-01-12T07:08:43.257Z,6.20
2023-01-12T07:12:47.438Z,4.83
2023-01-12T07:16:50.105Z,7.40
2023-01-12T07:20:52.825Z,6.73
2023-01-12T07:24:57.723Z,6.70
2023-01-12T07:29:02.205Z,6.67
2023-01-12T07:33:09.427Z,6.10
2023-01-12T07:37:12.201Z,5.73
2023-01-12T07:41:29.187Z,5.60
2023-01-12T07:45:33.850Z,8.00
2023-01-12T07:49:37.212Z,4.97
2023-01-12T07:53:40.163Z,6.00
2023-01-12T07:57:42.832Z,4.63
2023-01-12T08:01:46.927Z,6.30
2023-01-12T08:05:49.721Z,4.37
2023-01-12T08:09:52.391Z,9.43
2023-01-12T08:13:56.090Z,6.37
2023-01-12T08:18:05.764Z,5.63
2023-01-12T08:22:12.264Z,5.80
2023-01-12T08:26:17.120Z,6.33
2023-01-12T08:30:22.051Z,7.97
2023-01-12T08:34:27.971Z,8.60
2023-01-12T08:38:31.338Z,3.73
2023-01-12T08:42:34.006Z,4.93
2023-01-12T08:46:39.054Z,8.47
2023-01-12T08:50:43.405Z,8.80
2023-01-12T08:54:46.112Z,4.80
2023-01-12T08:58:48.831Z,6.57
2023-01-12T09:02:51.731Z,6.77
2023-01-12T09:06:55.981Z,5.10
2023-01-12T09:11:03.202Z,7.47
2023-01-12T09:15:07.201Z,5.03
2023-01-12T09:19:10.365Z,4.53
2023-01-12T09:23:14.551Z,6.23
2023-01-12T09:27:17.504Z,9.23
2023-01-12T09:31:22.219Z,4.43
2023-01-12T09:35:25.162Z,5.70
2023-01-12T09:39:29.594Z,6.27
2023-01-12T09:43:49.950Z,4.60
2023-01-12T09:47:56.224Z,5.97
2023-01-12T09:52:14.458Z,4.07
2023-01-12T09:56:23.708Z,4.60
2023-01-12T10:00:28.087Z,4.70
2023-01-12T10:04:30.802Z,3.17
2023-01-12T10:08:36.508Z,4.47
2023-01-12T10:12:43.569Z,5.10
2023-01-12T10:16:58.449Z,4.87
2023-01-12T10:21:01.166Z,5.93
2023-01-12T10:25:10.085Z,4.70
2023-01-12T10:29:14.243Z,4.23
2023-01-12T10:33:19.162Z,2.33
2023-01-12T10:37:21.988Z,4.33
2023-01-12T10:41:26.554Z,3.67
2023-01-12T10:45:30.976Z,3.57
2023-01-12T10:49:34.003Z,3.63
2023-01-12T10:53:42.650Z,3.97
2023-01-12T10:57:46.014Z,2.23
2023-01-12T11:01:52.688Z,3.70
2023-01-12T11:05:55.493Z,3.63
2023-01-12T11:10:19.363Z,3.07
2023-01-12T11:14:27.634Z,5.43
2023-01-12T11:18:36.516Z,3.13
2023-01-12T11:22:39.779Z,4.37
2023-01-12T11:26:46.926Z,6.00
2023-01-12T11:30:52.734Z,2.87
2023-01-12T11:35:01.342Z,6.17
2023-01-12T11:39:07.892Z,8.37
2023-01-12T11:43:42.299Z,4.63
2023-01-12T11:47:50.047Z,5.73
2023-01-12T11:51:56.683Z,4.43
2023-01-12T11:56:38.584Z,4.67
2023-01-12T12:00:52.892Z,3.70
2023-01-12T12:05:03.569Z,5.87
2023-01-12T12:09:19.121Z,4.67
2023-01-12T12:13:28.033Z,3.53
2023-01-12T12:17:39.786Z,2.37
2023-01-12T12:21:48.712Z,4.40
2023-01-12T12:25:57.919Z,3.07
2023-01-12T12:30:14.306Z,3.83
2023-01-12T12:34:28.760Z,5.27
2023-01-12T12:38:39.663Z,2.30
2023-01-12T12:43:10.945Z,4.10
2023-01-12T12:47:34.762Z,2.17
2023-01-12T12:51:38.859Z,3.33
2023-01-12T12:55:42.561Z,4.27
2023-01-12T13:00:00.619Z,2.77
2023-01-12T13:04:04.395Z,3.80
2023-01-12T13:08:17.797Z,2.70
2023-01-12T13:12:26.456Z,3.43
2023-01-12T13:16:48.939Z,3.00
2023-01-12T13:20:55.649Z,3.80
2023-01-12T13:24:59.463Z,2.50
2023-01-12T13:29:49.975Z,3.93
2023-01-12T13:34:29.604Z,2.37
2023-01-12T13:38:43.708Z,2.63
2023-01-12T13:43:07.184Z,3.90
2023-01-12T13:47:14.782Z,2.80
2023-01-12T13:51:22.202Z,3.37
2023-01-12T13:55:27.945Z,4.00
2023-01-12T13:59:30.990Z,3.10
2023-01-12T14:03:57.216Z,2.60
2023-01-12T14:08:12.783Z,3.03
2023-01-12T14:12:42.447Z,4.37
2023-01-12T14:17:05.187Z,3.57
2023-01-12T14:21:21.976Z,3.27
2023-01-12T14:25:26.367Z,3.07
2023-01-12T14:29:29.484Z,3.80
2023-01-12T14:33:33.751Z,4.10
2023-01-12T14:37:36.676Z,2.37
2023-01-12T14:41:58.149Z,2.53
2023-01-12T14:46:19.533Z,2.10
2023-01-12T14:50:23.833Z,3.57
2023-01-12T14:54:29.293Z,3.47
2023-01-12T14:58:33.570Z,2.43
2023-01-12T15:02:37.864Z,4.00
2023-01-12T15:06:41.867Z,1.73
2023-01-12T15:10:46.565Z,1.73
2023-01-12T15:14:50.647Z,2.43
2023-01-12T15:19:10.939Z,1.53
2023-01-12T15:23:31.284Z,1.60
2023-01-12T15:27:34.248Z,2.43
2023-01-12T15:31:39.479Z,1.83
2023-01-12T15:35:45.821Z,1.67
2023-01-12T15:39:48.829Z,0.93
2023-01-12T15:43:51.520Z,2.50
2023-01-12T15:47:55.662Z,1.47
2023-01-12T15:51:59.323Z,1.20
2023-01-12T15:56:02.029Z,2.20
2023-01-12T16:00:05.246Z,2.73
2023-01-12T16:04:40.927Z,1.40
2023-01-12T16:08:37.265Z,1.17
2023-01-12T16:12:40.470Z,1.77
2023-01-12T16:16:43.354Z,2.03
2023-01-12T16:20:47.672Z,1.50
2023-01-12T16:24:51.176Z,1.00
2023-01-12T16:28:53.895Z,1.03
2023-01-12T16:32:58.758Z,2.10
2023-01-12T16:37:03.102Z,1.23
2023-01-12T16:41:08.893Z,1.20
2023-01-12T16:45:11.851Z,0.80
2023-01-12T16:49:14.492Z,2.47
2023-01-12T16:53:18.603Z,1.63
2023-01-12T16:57:21.488Z,0.83
2023-01-12T17:01:24.754Z,1.50
2023-01-12T17:05:28.102Z,1.17
2023-01-12T17:09:32.319Z,1.30
2023-01-12T17:13:35.155Z,1.67
2023-01-12T17:17:38.204Z,1.03
2023-01-12T17:21:41.606Z,1.27
2023-01-12T17:25:45.977Z,1.00
2023-01-12T17:29:48.792Z,0.47
2023-01-12T17:33:51.888Z,1.30
2023-01-12T17:37:55.608Z,1.40
2023-01-12T17:42:17.600Z,1.47
2023-01-12T17:46:20.325Z,1.80
2023-01-12T17:50:23.332Z,0.90
2023-01-12T17:54:26.141Z,0.90
2023-01-12T17:58:30.784Z,2.43
2023-01-12T18:02:33.600Z,0.73
2023-01-12T18:06:36.610Z,1.17
2023-01-12T18:10:39.603Z,0.93
2023-01-12T18:14:43.692Z,1.57
2023-01-12T18:18:46.833Z,1.33
2023-01-12T18:22:49.865Z,1.57
2023-01-12T18:26:52.598Z,0.70
2023-01-12T18:31:04.210Z,0.53
2023-01-12T18:35:07.919Z,1.13
2023-01-12T18:39:14.136Z,1.37
2023-01-12T18:43:16.833Z,2.07
2023-01-12T18:47:38.471Z,2.50
2023-01-12T18:51:58.769Z,0.80
2023-01-12T18:56:03.554Z,2.27
2023-01-12T19:00:14.998Z,0.80
2023-01-12T19:04:29.876Z,0.90
2023-01-12T19:08:49.774Z,1.93
2023-01-12T19:13:12.484Z,1.77
2023-01-12T19:17:29.834Z,1.23
2023-01-12T19:21:51.202Z,1.40
2023-01-12T19:26:07.799Z,1.13
2023-01-12T19:30:11.976Z,1.83
2023-01-12T19:34:14.709Z,3.63
2023-01-12T19:38:18.860Z,2.03
2023-01-12T19:42:39.015Z,1.13
2023-01-12T19:46:41.893Z,0.80
2023-01-12T19:50:44.900Z,0.80
2023-01-12T19:54:50.149Z,1.23
2023-01-12T19:58:54.403Z,1.13
2023-01-12T20:02:57.154Z,0.67
2023-01-12T20:07:02.692Z,1.83
2023-01-12T20:11:08.245Z,0.70
2023-01-12T20:15:11.661Z,1.57
2023-01-12T20:19:14.653Z,1.50
2023-01-12T20:23:17.968Z,1.57
2023-01-12T20:27:22.369Z,1.10
2023-01-12T20:31:25.415Z,0.57
2023-01-12T20:35:28.404Z,0.97
2023-01-12T20:39:31.272Z,1.40
2023-01-12T20:43:35.595Z,2.13
2023-01-12T20:47:38.465Z,0.50
2023-01-12T20:51:42.418Z,1.30
2023-01-12T20:55:47.455Z,1.60
2023-01-12T20:59:52.624Z,0.77
2023-01-12T21:03:56.450Z,0.70
2023-01-12T21:08:07.584Z,1.27
2023-01-12T21:12:12.654Z,1.10
2023-01-12T21:16:19.306Z,0.67
2023-01-12T21:20:22.599Z,2.10
2023-01-12T21:24:26.639Z,0.53
2023-01-12T21:28:30.781Z,1.13
2023-01-12T21:32:35.413Z,0.90
2023-01-12T21:36:39.405Z,1.03
2023-01-12T21:40:43.870Z,1.03
2023-01-12T21:44:47.782Z,0.50
2023-01-12T21:48:59.870Z,0.97
2023-01-12T21:53:13.760Z,1.93
2023-01-12T21:57:17.055Z,2.03
2023-01-12T22:01:20.073Z,1.93
2023-01-12T22:05:25.331Z,1.20
2023-01-12T22:09:29.533Z,1.17
2023-01-12T22:13:32.303Z,0.80
2023-01-12T22:17:35.034Z,1.17
2023-01-12T22:21:40.848Z,1.33
2023-01-12T22:25:43.779Z,1.33
2023-01-12T22:29:46.659Z,1.33
2023-01-12T22:33:58.530Z,0.53
2023-01-12T22:38:02.748Z,1.17
2023-01-12T22:42:05.621Z,1.73
2023-01-12T22:46:15.889Z,1.17
2023-01-12T22:50:18.757Z,1.13
2023-01-12T22:54:23.170Z,2.13
2023-01-12T22:58:25.958Z,1.57
2023-01-12T23:02:47.869Z,1.77
2023-01-12T23:06:50.579Z,1.87
2023-01-12T23:11:03.162Z,1.57
2023-01-12T23:15:06.801Z,1.77
2023-01-12T23:19:09.691Z,0.70
2023-01-12T23:23:14.389Z,0.50
2023-01-12T23:27:18.351Z,2.20
2023-01-12T23:31:22.661Z,1.00
2023-01-12T23:35:25.473Z,0.80
2023-01-12T23:39:28.135Z,0.70
2023-01-12T23:43:33.842Z,1.27
2023-01-12T23:47:36.564Z,1.40
2023-01-12T23:51:40.447Z,1.73
2023-01-12T23:55:43.431Z,1.40
2023-01-12T23:59:47.533Z,2.33
